Time;durP1;ratioP1;P1;durP2;ratioP2;P2;SDS_P1;SDS_P2;PMS_P1;PMS_P2;Temp;Humidity;BMP_temperature;BMP_pressure;BME280_temperature;BME280_humidity;BME280_pressure;Samples;Min_cycle;Max_cycle;Signal;HPM_P1;HPM_P2
2021/05/28 00:01:40;;;;;;;;;;;26.90;99.90;;;;;;1895089;74;20549;-88
2021/05/28 00:04:10;;;;;;;;;;;26.90;99.90;;;;;;1893649;73;20161;-88
2021/05/28 00:06:39;;;;;;;;;;;26.90;99.90;;;;;;1907787;75;20189;-88
2021/05/28 00:09:10;;;;;;;;;;;26.90;99.90;;;;;;1901497;74;20231;-87
2021/05/28 00:11:40;;;;;;;;;;;27.00;99.90;;;;;;1898910;75;20179;-89
2021/05/28 00:14:10;;;;;;;;;;;27.00;99.90;;;;;;1909262;74;20205;-88
2021/05/28 00:16:39;;;;;;;;;;;27.00;99.90;;;;;;1908194;74;20283;-88
2021/05/28 00:19:09;;;;;;;;;;;27.00;99.90;;;;;;1881317;75;20187;-89
2021/05/28 00:21:39;;;;;;;;;;;27.00;99.90;;;;;;1874915;75;20238;-88
2021/05/28 00:24:09;;;;;;;;;;;27.00;99.90;;;;;;1874255;76;20223;-88
2021/05/28 00:26:39;;;;;;;;;;;27.00;99.90;;;;;;1893428;75;20128;-88
2021/05/28 00:29:08;;;;;;;;;;;26.90;99.90;;;;;;1887855;76;20174;-88
2021/05/28 00:31:38;;;;;;;;;;;27.00;99.90;;;;;;1907618;74;20129;-88
2021/05/28 00:34:08;;;;;;;;;;;27.00;99.90;;;;;;1869941;75;20400;-86
2021/05/28 00:36:38;;;;;;;;;;;27.00;99.90;;;;;;1872163;77;20183;-88
2021/05/28 00:39:07;;;;;;;;;;;27.10;99.90;;;;;;1901841;74;20184;-87
2021/05/28 00:41:37;;;;;;;;;;;27.10;99.90;;;;;;1870404;77;20267;-88
2021/05/28 00:44:08;;;;;;;;;;;27.10;99.90;;;;;;1870347;76;20187;-88
2021/05/28 00:46:39;;;;;;;;;;;27.10;99.90;;;;;;1880084;74;20576;-89
2021/05/28 00:49:08;;;;;;;;;;;27.20;99.90;;;;;;1863087;75;20218;-88
2021/05/28 00:51:39;;;;;;;;;;;27.30;99.90;;;;;;1898519;75;20179;-87
2021/05/28 00:54:10;;;;;;;;;;;27.40;99.90;;;;;;1896969;75;20240;-88
2021/05/28 00:56:40;;;;;;;;;;;27.40;99.90;;;;;;1894974;74;20222;-88
2021/05/28 00:59:10;;;;;;;;;;;27.40;99.90;;;;;;1898372;75;20132;-89
2021/05/28 01:01:40;;;;;;;;;;;27.50;99.90;;;;;;1899874;75;20209;-88
2021/05/28 01:04:10;;;;;;;;;;;27.50;99.90;;;;;;1919035;74;20198;-87
2021/05/28 01:06:42;;;;;;;;;;;27.60;99.90;;;;;;1898275;74;20221;-86
2021/05/28 01:09:12;;;;;;;;;;;27.70;99.90;;;;;;1931258;74;20496;-87
2021/05/28 01:11:42;;;;;;;;;;;27.70;99.90;;;;;;1922221;74;20139;-87
2021/05/28 01:14:12;;;;;;;;;;;27.80;99.90;;;;;;1928665;74;20165;-87
2021/05/28 01:16:45;;;;;;;;;;;27.80;99.90;;;;;;1920788;74;20306;-88
2021/05/28 01:19:17;;;;;;;;;;;27.80;99.90;;;;;;1901626;74;20173;-91
2021/05/28 01:21:47;;;;;;;;;;;27.90;99.90;;;;;;1907749;75;20168;-91
2021/05/28 01:24:17;;;;;;;;;;;27.90;99.90;;;;;;1906475;74;20162;-92
2021/05/28 01:26:48;;;;;;;;;;;27.90;99.90;;;;;;1916478;74;20242;-93
2021/05/28 01:29:19;;;;;;;;;;;27.90;99.90;;;;;;1924127;74;20127;-92
2021/05/28 01:31:49;;;;;;;;;;;27.90;99.90;;;;;;1925532;74;20201;-92
2021/05/28 01:34:19;;;;;;;;;;;28.00;99.90;;;;;;1892485;74;20162;-91
2021/05/28 01:36:51;;;;;;;;;;;28.00;99.90;;;;;;1923118;74;20177;-92
2021/05/28 01:39:30;;;;;;;;;;;28.00;99.90;;;;;;1898258;74;20183;-90
2021/05/28 01:42:04;;;;;;;;;;;28.00;99.90;;;;;;1910356;74;20183;-89
2021/05/28 01:44:34;;;;;;;;;;;28.00;99.90;;;;;;1906239;74;20235;-89
2021/05/28 01:47:04;;;;;;;;;;;28.10;99.90;;;;;;1905006;74;20133;-90
2021/05/28 01:49:39;;;;;;;;;;;28.10;99.90;;;;;;1906512;74;20161;-89
2021/05/28 01:52:05;;;;;;;;;;;28.10;99.90;;;;;;1869455;76;20195;-88
2021/05/28 01:54:37;;;;;;;;;;;28.10;99.90;;;;;;1895681;74;20200;-87
2021/05/28 01:57:08;;;;;;;;;;;28.20;99.90;;;;;;1911648;74;20118;-87
2021/05/28 01:59:38;;;;;;;;;;;28.30;99.90;;;;;;1897279;74;20167;-88
2021/05/28 02:02:08;;;;;;;;;;;28.30;99.90;;;;;;1901278;75;20163;-87
2021/05/28 02:04:38;;;;;;;;;;;28.40;99.90;;;;;;1902296;74;20217;-88
2021/05/28 02:07:08;;;;;;;;;;;28.40;99.90;;;;;;1899894;75;20198;-87
2021/05/28 02:09:38;;;;;;;;;;;28.50;99.90;;;;;;1900526;75;20507;-87
2021/05/28 02:12:08;;;;;;;;;;;28.50;99.80;;;;;;1897580;74;20202;-87
2021/05/28 02:14:39;;;;;;;;;;;28.60;99.50;;;;;;1899525;74;20171;-87
2021/05/28 02:17:10;;;;;;;;;;;28.50;99.40;;;;;;1873936;75;20205;-89
2021/05/28 02:19:41;;;;;;;;;;;28.50;99.40;;;;;;1875529;75;20239;-89
2021/05/28 02:22:11;;;;;;;;;;;28.50;99.40;;;;;;1863539;75;20195;-88
2021/05/28 02:24:44;;;;;;;;;;;28.60;99.70;;;;;;1903460;75;20256;-91
2021/05/28 02:27:14;;;;;;;;;;;28.70;99.50;;;;;;1910648;73;20212;-91
2021/05/28 02:29:45;;;;;;;;;;;28.80;99.20;;;;;;1921988;74;20184;-92
2021/05/28 02:32:17;;;;;;;;;;;28.90;99.40;;;;;;1921774;74;20283;-93
2021/05/28 02:34:49;;;;;;;;;;;29.00;98.50;;;;;;1921711;73;20251;-92
2021/05/28 02:37:22;;;;;;;;;;;29.00;98.60;;;;;;1902153;74;20218;-94
2021/05/28 02:39:53;;;;;;;;;;;29.00;98.70;;;;;;1873740;75;20189;-93
2021/05/28 02:42:35;;;;;;;;;;;29.00;98.40;;;;;;1889690;74;20156;-92
2021/05/28 02:45:23;;;;;;;;;;;;;;;;;;;;;
2021/05/28 02:47:49;;;;;;;;;;;29.00;98.20;;;;;;1869565;75;20235;-94
2021/05/28 02:50:24;;;;;;;;;;;29.00;98.30;;;;;;1900923;74;20459;-92
2021/05/28 02:52:54;;;;;;;;;;;29.00;98.40;;;;;;1923838;74;20173;-93
2021/05/28 02:55:26;;;;;;;;;;;29.00;98.50;;;;;;1901913;74;20258;-92
2021/05/28 02:58:13;;;;;;;;;;;29.00;98.20;;;;;;1873776;75;20145;-94
2021/05/28 03:00:38;;;;;;;;;;;29.00;98.30;;;;;;1883165;74;20312;-90
2021/05/28 03:03:08;;;;;;;;;;;29.00;98.40;;;;;;1902555;74;20229;-90
2021/05/28 03:05:40;;;;;;;;;;;29.10;98.20;;;;;;1907516;74;20181;-90
2021/05/28 03:08:11;;;;;;;;;;;29.10;98.40;;;;;;1898525;74;20622;-90
2021/05/28 03:10:41;;;;;;;;;;;29.10;98.20;;;;;;1903025;74;20230;-90
2021/05/28 03:13:11;;;;;;;;;;;29.10;98.30;;;;;;1906463;74;20155;-88
2021/05/28 03:15:41;;;;;;;;;;;29.10;98.40;;;;;;1892420;74;20211;-88
2021/05/28 03:18:19;;;;;;;;;;;29.10;98.40;;;;;;1859611;75;20230;-90
2021/05/28 03:23:17;;;;;;;;;;;29.10;98.10;;;;;;1867071;74;20168;-90
2021/05/28 03:25:47;;;;;;;;;;;29.20;98.10;;;;;;1922057;74;20128;-91
2021/05/28 03:28:17;;;;;;;;;;;29.10;97.90;;;;;;1900872;74;20144;-89
2021/05/28 03:30:46;;;;;;;;;;;29.10;98.00;;;;;;1862462;75;20277;-89
2021/05/28 03:33:16;;;;;;;;;;;29.10;98.10;;;;;;1857569;75;20295;-88
2021/05/28 03:35:46;;;;;;;;;;;29.10;97.90;;;;;;1874439;75;20181;-89
2021/05/28 03:38:17;;;;;;;;;;;29.10;98.10;;;;;;1879780;75;20278;-89
2021/05/28 03:40:47;;;;;;;;;;;29.20;98.10;;;;;;1874256;75;20163;-91
2021/05/28 03:43:19;;;;;;;;;;;29.20;98.00;;;;;;1866300;77;20256;-90
2021/05/28 03:45:49;;;;;;;;;;;29.20;98.10;;;;;;1877981;75;20214;-92
2021/05/28 03:48:19;;;;;;;;;;;29.30;97.80;;;;;;1876554;75;20186;-91
2021/05/28 03:50:48;;;;;;;;;;;29.40;97.70;;;;;;1871611;75;20263;-92
2021/05/28 03:53:18;;;;;;;;;;;29.40;97.60;;;;;;1874457;75;20159;-84
2021/05/28 03:55:48;;;;;;;;;;;29.50;97.30;;;;;;1878436;75;20208;-84
2021/05/28 03:58:18;;;;;;;;;;;29.60;97.20;;;;;;1902479;74;20212;-86
2021/05/28 04:00:47;;;;;;;;;;;29.60;96.30;;;;;;1919867;74;20185;-86
2021/05/28 04:03:17;;;;;;;;;;;29.60;96.90;;;;;;1877607;75;20140;-87
2021/05/28 04:05:47;;;;;;;;;;;29.60;96.30;;;;;;1859931;75;20132;-85
2021/05/28 04:08:17;;;;;;;;;;;29.70;96.20;;;;;;1870406;77;20486;-85
2021/05/28 04:10:49;;;;;;;;;;;29.80;96.10;;;;;;1881188;75;20216;-86
2021/05/28 04:13:24;;;;;;;;;;;29.80;96.20;;;;;;1874707;75;20191;-86
2021/05/28 04:15:57;;;;;;;;;;;29.80;95.90;;;;;;1877985;75;20140;-84
2021/05/28 04:18:27;;;;;;;;;;;29.90;96.00;;;;;;1878562;75;20118;-87
2021/05/28 04:20:57;;;;;;;;;;;30.00;95.90;;;;;;1882492;75;20203;-89
2021/05/28 04:23:27;;;;;;;;;;;30.20;95.70;;;;;;1875728;75;20543;-87
2021/05/28 04:25:57;;;;;;;;;;;30.30;95.20;;;;;;1881311;75;20214;-88
2021/05/28 04:28:29;;;;;;;;;;;30.40;94.80;;;;;;1884764;74;20200;-87
2021/05/28 04:30:59;;;;;;;;;;;30.50;93.90;;;;;;1892761;75;20193;-88
2021/05/28 04:33:29;;;;;;;;;;;30.70;94.10;;;;;;1916757;74;20339;-88
2021/05/28 04:35:58;;;;;;;;;;;30.90;92.90;;;;;;1921537;74;20244;-87
2021/05/28 04:38:28;;;;;;;;;;;31.00;92.70;;;;;;1933403;73;20437;-87
2021/05/28 04:40:58;;;;;;;;;;;31.10;93.20;;;;;;1932537;74;20228;-88
2021/05/28 04:43:28;;;;;;;;;;;31.10;92.40;;;;;;1916797;74;20479;-87
2021/05/28 04:45:58;;;;;;;;;;;31.20;91.90;;;;;;1912367;74;20209;-88
2021/05/28 04:48:28;;;;;;;;;;;31.20;91.70;;;;;;1869673;75;20735;-86
2021/05/28 04:50:58;;;;;;;;;;;31.20;91.70;;;;;;1876554;75;20197;-88
2021/05/28 04:53:28;;;;;;;;;;;31.10;91.70;;;;;;1908120;74;20156;-87
2021/05/28 04:55:58;;;;;;;;;;;31.00;92.00;;;;;;1895955;74;20155;-85
2021/05/28 04:58:28;;;;;;;;;;;31.00;92.50;;;;;;1894727;74;20159;-87
2021/05/28 05:00:57;;;;;;;;;;;31.00;92.60;;;;;;1896718;74;20159;-85
2021/05/28 05:03:27;;;;;;;;;;;31.10;92.80;;;;;;1854558;75;20192;-85
2021/05/28 05:05:57;;;;;;;;;;;31.30;93.80;;;;;;1870867;75;20276;-88
2021/05/28 05:08:27;;;;;;;;;;;31.50;93.20;;;;;;1875140;75;20246;-88
2021/05/28 05:10:57;;;;;;;;;;;31.60;92.10;;;;;;1908741;74;20200;-90
2021/05/28 05:13:26;;;;;;;;;;;31.70;90.80;;;;;;1908986;74;20255;-88
2021/05/28 05:15:56;;;;;;;;;;;31.90;90.70;;;;;;1858347;76;20556;-87
2021/05/28 05:18:26;;;;;;;;;;;31.90;91.60;;;;;;1873530;75;20198;-88
2021/05/28 05:20:55;;;;;;;;;;;;;;;;;;1873229;76;20272;-86
2021/05/28 05:23:25;;;;;;;;;;;32.20;90.20;;;;;;1908591;74;20166;-89
2021/05/28 05:25:55;;;;;;;;;;;32.20;91.60;;;;;;1903002;74;20159;-88
2021/05/28 05:28:25;;;;;;;;;;;32.30;88.00;;;;;;1879373;74;20206;-86
2021/05/28 05:30:55;;;;;;;;;;;32.40;88.50;;;;;;1877489;75;20143;-87
2021/05/28 05:33:24;;;;;;;;;;;32.50;87.90;;;;;;1879690;75;20215;-89
2021/05/28 05:35:56;;;;;;;;;;;32.50;86.40;;;;;;1910360;72;20859;-87
2021/05/28 05:38:25;;;;;;;;;;;32.60;86.70;;;;;;1897465;74;20238;-86
2021/05/28 05:40:55;;;;;;;;;;;32.60;85.30;;;;;;1866310;76;20160;-87
2021/05/28 05:43:25;;;;;;;;;;;32.60;86.10;;;;;;1871335;75;20269;-87
2021/05/28 05:45:55;;;;;;;;;;;32.40;85.60;;;;;;1874688;75;20199;-88
2021/05/28 05:48:25;;;;;;;;;;;32.40;86.80;;;;;;1873834;75;20232;-86
2021/05/28 05:50:55;;;;;;;;;;;32.50;86.90;;;;;;1873049;75;20163;-87
2021/05/28 05:53:25;;;;;;;;;;;32.40;89.20;;;;;;1909482;74;20192;-86
2021/05/28 05:55:55;;;;;;;;;;;32.50;85.40;;;;;;1908836;74;20257;-87
2021/05/28 05:58:25;;;;;;;;;;;32.40;85.10;;;;;;1911411;75;20160;-87
2021/05/28 06:00:55;;;;;;;;;;;32.40;87.50;;;;;;1909438;74;20244;-85
2021/05/28 06:03:25;;;;;;;;;;;32.20;86.40;;;;;;1869771;75;20255;-83
2021/05/28 06:05:55;;;;;;;;;;;32.20;87.60;;;;;;1875139;75;20359;-83
2021/05/28 06:08:24;;;;;;;;;;;32.20;88.50;;;;;;1926190;74;20176;-82
2021/05/28 06:10:54;;;;;;;;;;;32.20;88.30;;;;;;1890467;74;20197;-83
2021/05/28 06:13:23;;;;;;;;;;;32.20;86.90;;;;;;1870775;75;20206;-82
2021/05/28 06:15:53;;;;;;;;;;;32.20;86.90;;;;;;1882269;75;20246;-84
2021/05/28 06:18:23;;;;;;;;;;;32.20;86.50;;;;;;1868763;75;20210;-82
2021/05/28 06:20:54;;;;;;;;;;;32.40;84.60;;;;;;1870804;75;20234;-83
2021/05/28 06:23:27;;;;;;;;;;;32.50;86.10;;;;;;1903235;74;20196;-84
2021/05/28 06:25:57;;;;;;;;;;;32.50;86.40;;;;;;1914556;74;20179;-83
2021/05/28 06:28:27;;;;;;;;;;;32.60;86.60;;;;;;1904193;74;20195;-82
2021/05/28 06:30:57;;;;;;;;;;;32.50;88.20;;;;;;1914426;74;20228;-83
2021/05/28 06:33:27;;;;;;;;;;;32.50;85.60;;;;;;1873561;75;20218;-86
2021/05/28 06:36:01;;;;;;;;;;;32.60;86.80;;;;;;1879635;76;20179;-83
2021/05/28 06:38:34;;;;;;;;;;;32.70;86.60;;;;;;1911260;75;20181;-86
2021/05/28 06:41:04;;;;;;;;;;;32.70;84.40;;;;;;1910648;74;20152;-82
2021/05/28 06:43:34;;;;;;;;;;;32.70;83.80;;;;;;1910935;74;20196;-86
2021/05/28 06:46:04;;;;;;;;;;;32.80;84.20;;;;;;1875004;75;20266;-84
2021/05/28 06:48:35;;;;;;;;;;;32.80;86.00;;;;;;1875126;75;20187;-85
2021/05/28 06:51:06;;;;;;;;;;;32.80;82.30;;;;;;1872278;76;20232;-83
2021/05/28 06:53:36;;;;;;;;;;;32.80;86.80;;;;;;1913387;74;20170;-84
2021/05/28 06:56:08;;;;;;;;;;;32.80;83.00;;;;;;1892516;75;20402;-85
2021/05/28 06:58:52;;;;;;;;;;;32.90;84.40;;;;;;1905137;74;20218;-85
2021/05/28 07:01:41;;;;;;;;;;;33.10;86.00;;;;;;1906337;74;20286;-84
2021/05/28 07:04:10;;;;;;;;;;;33.10;84.90;;;;;;1902324;74;20140;-86
2021/05/28 07:06:43;;;;;;;;;;;32.90;85.10;;;;;;1884671;76;20253;-86
2021/05/28 07:09:13;;;;;;;;;;;32.80;83.50;;;;;;1894195;76;20187;-83
2021/05/28 07:11:43;;;;;;;;;;;32.70;82.60;;;;;;1891306;76;20218;-82
2021/05/28 07:14:13;;;;;;;;;;;32.60;84.10;;;;;;1904436;74;20396;-83
2021/05/28 07:16:43;;;;;;;;;;;32.60;82.20;;;;;;1888784;76;20181;-83
2021/05/28 07:19:12;;;;;;;;;;;32.60;83.40;;;;;;1882286;76;20179;-83
2021/05/28 07:21:42;;;;;;;;;;;32.60;83.20;;;;;;1887862;76;20211;-82
2021/05/28 07:24:12;;;;;;;;;;;32.60;82.70;;;;;;1891772;76;20183;-84
2021/05/28 07:26:42;;;;;;;;;;;32.60;82.50;;;;;;1892821;76;20170;-84
2021/05/28 07:29:13;;;;;;;;;;;32.60;81.00;;;;;;1893325;76;20186;-82
2021/05/28 07:31:44;;;;;;;;;;;32.60;79.60;;;;;;1912904;74;20198;-83
2021/05/28 07:34:14;;;;;;;;;;;32.60;80.40;;;;;;1905846;74;20172;-83
2021/05/28 07:36:45;;;;;;;;;;;32.60;82.10;;;;;;1894592;75;20184;-84
2021/05/28 07:39:14;;;;;;;;;;;32.60;81.70;;;;;;1895098;75;20218;-81
2021/05/28 07:41:44;;;;;;;;;;;32.60;81.10;;;;;;1899696;75;20564;-80
2021/05/28 07:44:14;;;;;;;;;;;32.70;80.50;;;;;;1901292;75;20175;-85
2021/05/28 07:46:44;;;;;;;;;;;32.70;82.90;;;;;;1889957;75;20290;-83
2021/05/28 07:49:15;;;;;;;;;;;32.80;81.20;;;;;;1893053;75;20232;-84
2021/05/28 07:52:04;;;;;;;;;;;32.70;79.90;;;;;;1900498;75;20129;-84
2021/05/28 07:54:34;;;;;;;;;;;32.80;78.80;;;;;;1900259;75;20143;-84
2021/05/28 07:57:05;;;;;;;;;;;32.80;81.20;;;;;;1927805;74;20196;-84
2021/05/28 07:59:36;;;;;;;;;;;32.80;80.40;;;;;;1937254;74;20194;-83
2021/05/28 08:02:06;;;;;;;;;;;32.80;80.40;;;;;;1945656;73;20244;-84
2021/05/28 08:04:36;;;;;;;;;;;32.80;79.20;;;;;;1935043;74;20235;-84
2021/05/28 08:07:06;;;;;;;;;;;32.80;79.50;;;;;;1948321;73;20179;-82
2021/05/28 08:09:36;;;;;;;;;;;32.80;80.20;;;;;;1945084;73;20308;-84
2021/05/28 08:12:07;;;;;;;;;;;32.80;80.40;;;;;;1946463;73;20272;-84
2021/05/28 08:14:36;;;;;;;;;;;32.80;80.20;;;;;;1947703;73;20175;-83
2021/05/28 08:17:06;;;;;;;;;;;32.80;81.60;;;;;;1895472;75;20171;-85
2021/05/28 08:19:36;;;;;;;;;;;32.70;80.00;;;;;;1957601;73;20203;-83
2021/05/28 08:22:06;;;;;;;;;;;32.80;80.10;;;;;;1960247;73;20351;-82
2021/05/28 08:24:35;;;;;;;;;;;32.80;80.80;;;;;;1952607;73;20588;-83
2021/05/28 08:27:05;;;;;;;;;;;32.70;79.40;;;;;;1957931;73;20230;-83
2021/05/28 08:29:35;;;;;;;;;;;32.70;79.30;;;;;;1952957;73;20111;-84
2021/05/28 08:32:06;;;;;;;;;;;32.80;78.30;;;;;;1958157;73;20128;-85
2021/05/28 08:34:37;;;;;;;;;;;32.70;80.20;;;;;;1955586;73;20174;-85
2021/05/28 08:37:07;;;;;;;;;;;32.70;80.40;;;;;;1956028;73;20574;-84
2021/05/28 08:39:38;;;;;;;;;;;32.70;79.70;;;;;;1951166;73;20516;-85
2021/05/28 08:42:09;;;;;;;;;;;32.80;80.50;;;;;;1957272;73;20458;-85
2021/05/28 08:44:39;;;;;;;;;;;32.70;80.70;;;;;;1958884;73;20191;-85
2021/05/28 08:47:10;;;;;;;;;;;32.70;80.10;;;;;;1957473;73;20215;-84
2021/05/28 08:49:40;;;;;;;;;;;32.70;78.90;;;;;;1956352;73;20653;-84
2021/05/28 08:52:10;;;;;;;;;;;32.70;77.40;;;;;;1956397;73;20203;-83
2021/05/28 08:54:40;;;;;;;;;;;32.60;78.10;;;;;;1931257;73;20227;-83
2021/05/28 08:57:11;;;;;;;;;;;32.60;78.10;;;;;;1922003;74;20434;-84
2021/05/28 08:59:49;;;;;;;;;;;32.60;78.80;;;;;;1934013;74;20277;-84
2021/05/28 09:02:23;;;;;;;;;;;32.60;78.10;;;;;;1936527;73;20174;-84
2021/05/28 09:05:11;;;;;;;;;;;32.60;78.50;;;;;;1914822;74;20160;-84
2021/05/28 09:07:50;;;;;;;;;;;32.60;79.00;;;;;;1916296;74;20223;-84
2021/05/28 09:10:21;;;;;;;;;;;32.50;77.50;;;;;;1939021;73;20233;-85
2021/05/28 09:12:50;;;;;;;;;;;32.60;77.60;;;;;;1931254;74;20149;-84
2021/05/28 09:15:22;;;;;;;;;;;32.50;77.20;;;;;;1931571;74;20276;-83
2021/05/28 09:17:57;;;;;;;;;;;32.50;76.80;;;;;;1939301;74;20199;-85
2021/05/28 09:20:30;;;;;;;;;;;32.40;77.70;;;;;;1927698;74;20156;-84
2021/05/28 09:23:00;;;;;;;;;;;32.40;77.60;;;;;;1940428;74;20250;-85
2021/05/28 09:25:31;;;;;;;;;;;32.40;78.30;;;;;;1926979;74;20167;-84
2021/05/28 09:28:09;;;;;;;;;;;32.40;77.60;;;;;;1935302;73;20249;-84
2021/05/28 09:31:01;;;;;;;;;;;32.40;79.20;;;;;;1929908;73;20246;-84
2021/05/28 09:33:32;;;;;;;;;;;32.40;78.80;;;;;;1934350;74;20446;-84
2021/05/28 09:36:03;;;;;;;;;;;32.40;79.50;;;;;;1930057;74;20163;-84
2021/05/28 09:38:32;;;;;;;;;;;32.50;80.00;;;;;;1931738;74;20463;-85
2021/05/28 09:41:03;;;;;;;;;;;32.50;79.20;;;;;;1931194;74;20357;-84
2021/05/28 09:43:33;;;;;;;;;;;32.50;80.00;;;;;;1936471;74;20172;-85
2021/05/28 09:46:05;;;;;;;;;;;32.50;79.70;;;;;;1937679;74;20222;-84
2021/05/28 09:48:36;;;;;;;;;;;32.60;80.20;;;;;;1943632;73;20231;-83
2021/05/28 09:51:07;;;;;;;;;;;32.60;79.40;;;;;;1935103;74;20250;-86
2021/05/28 09:53:39;;;;;;;;;;;32.60;80.20;;;;;;1926052;73;20211;-85
2021/05/28 09:56:10;;;;;;;;;;;32.60;77.90;;;;;;1956523;73;20159;-84
2021/05/28 09:58:41;;;;;;;;;;;32.50;77.90;;;;;;1955507;73;20253;-85
2021/05/28 10:01:11;;;;;;;;;;;32.50;79.00;;;;;;1955263;73;20348;-84
2021/05/28 10:04:00;;;;;;;;;;;32.50;79.60;;;;;;1958104;73;20167;-87
2021/05/28 10:06:31;;;;;;;;;;;32.40;78.00;;;;;;1927377;74;20479;-84
2021/05/28 10:09:03;;;;;;;;;;;32.40;79.70;;;;;;1924416;74;20196;-85
2021/05/28 10:11:34;;;;;;;;;;;32.30;79.10;;;;;;1920196;74;20497;-85
2021/05/28 10:14:06;;;;;;;;;;;32.30;80.10;;;;;;1926827;74;20243;-87
2021/05/28 10:16:37;;;;;;;;;;;32.30;79.70;;;;;;1925122;74;20513;-85
2021/05/28 10:19:07;;;;;;;;;;;32.30;79.60;;;;;;1921763;74;20542;-86
2021/05/28 10:21:37;;;;;;;;;;;32.30;80.50;;;;;;1936746;74;20125;-86
2021/05/28 10:24:07;;;;;;;;;;;32.20;78.10;;;;;;1927409;74;20145;-85
2021/05/28 10:26:37;;;;;;;;;;;32.20;79.50;;;;;;1938086;74;20223;-85
2021/05/28 10:29:06;;;;;;;;;;;32.20;80.00;;;;;;1937903;74;20246;-84
2021/05/28 10:31:38;;;;;;;;;;;32.20;78.40;;;;;;1937674;74;20215;-84
2021/05/28 10:34:08;;;;;;;;;;;32.20;78.80;;;;;;1934931;74;20197;-84
2021/05/28 10:36:39;;;;;;;;;;;32.20;79.50;;;;;;1927729;74;20212;-84
2021/05/28 10:39:10;;;;;;;;;;;32.20;79.70;;;;;;1902664;75;20189;-83
2021/05/28 10:41:41;;;;;;;;;;;32.20;79.50;;;;;;1903520;75;20216;-83
2021/05/28 10:44:13;;;;;;;;;;;32.20;79.50;;;;;;1903215;75;20165;-83
2021/05/28 10:49:34;;;;;;;;;;;32.10;79.80;;;;;;1855209;77;20230;-84
2021/05/28 10:52:04;;;;;;;;;;;32.10;80.00;;;;;;1832210;78;20535;-84
2021/05/28 10:54:35;;;;;;;;;;;32.00;80.50;;;;;;1793757;80;20214;-84
2021/05/28 10:57:06;;;;;;;;;;;32.10;80.60;;;;;;1832458;78;20585;-84
2021/05/28 10:59:37;;;;;;;;;;;32.00;79.90;;;;;;1818912;78;20235;-83
2021/05/28 11:02:07;;;;;;;;;;;32.00;80.30;;;;;;1846418;77;20201;-84
2021/05/28 11:04:38;;;;;;;;;;;32.00;80.50;;;;;;1832287;78;20177;-83
2021/05/28 11:07:09;;;;;;;;;;;32.00;82.00;;;;;;1831910;78;20146;-85
2021/05/28 11:09:40;;;;;;;;;;;32.00;82.70;;;;;;1841088;77;20193;-85
2021/05/28 11:12:11;;;;;;;;;;;31.90;83.20;;;;;;1843969;76;20222;-86
2021/05/28 11:14:42;;;;;;;;;;;31.90;83.80;;;;;;1832209;77;20283;-84
2021/05/28 11:17:15;;;;;;;;;;;31.80;83.90;;;;;;1840603;77;20343;-85
2021/05/28 11:19:45;;;;;;;;;;;31.70;84.30;;;;;;1868311;76;20202;-84
2021/05/28 11:22:16;;;;;;;;;;;31.70;84.90;;;;;;1879571;76;20161;-86
2021/05/28 11:24:53;;;;;;;;;;;31.60;85.30;;;;;;1832931;77;20203;-82
2021/05/28 11:27:19;;;;;;;;;;;31.50;85.50;;;;;;1831300;77;20144;-82
2021/05/28 11:29:50;;;;;;;;;;;31.50;86.30;;;;;;1887452;76;20939;-81
2021/05/28 11:32:21;;;;;;;;;;;31.40;86.30;;;;;;1881098;76;20204;-82
2021/05/28 11:34:53;;;;;;;;;;;31.40;87.40;;;;;;1859352;77;20185;-88
2021/05/28 11:37:24;;;;;;;;;;;31.30;87.30;;;;;;1859896;77;20220;-88
2021/05/28 11:39:55;;;;;;;;;;;31.20;87.20;;;;;;1869945;75;20594;-87
2021/05/28 11:42:25;;;;;;;;;;;31.20;87.60;;;;;;1873708;75;20209;-86
2021/05/28 11:44:54;;;;;;;;;;;31.20;87.50;;;;;;1880907;76;20229;-86
2021/05/28 11:47:26;;;;;;;;;;;31.20;87.40;;;;;;1890398;75;20188;-88
2021/05/28 11:49:56;;;;;;;;;;;31.10;88.30;;;;;;1884024;76;20183;-88
2021/05/28 11:52:26;;;;;;;;;;;31.10;87.90;;;;;;1885992;76;20130;-87
2021/05/28 11:54:57;;;;;;;;;;;31.00;87.90;;;;;;1889904;75;20134;-88
2021/05/28 11:57:27;;;;;;;;;;;31.00;87.90;;;;;;1865889;75;20183;-88
2021/05/28 11:59:58;;;;;;;;;;;30.90;87.80;;;;;;1865755;76;20170;-86
2021/05/28 12:02:30;;;;;;;;;;;31.00;87.80;;;;;;1882494;76;20221;-84
2021/05/28 12:05:00;;;;;;;;;;;30.90;87.90;;;;;;1868291;76;20498;-86
2021/05/28 12:07:31;;;;;;;;;;;30.90;87.90;;;;;;1867265;76;20242;-85
2021/05/28 12:10:02;;;;;;;;;;;30.90;88.10;;;;;;1885917;76;20169;-87
2021/05/28 12:12:33;;;;;;;;;;;30.90;88.10;;;;;;1875082;76;20446;-86
2021/05/28 12:15:04;;;;;;;;;;;30.90;88.10;;;;;;1873451;76;20190;-86
2021/05/28 12:17:34;;;;;;;;;;;30.80;87.80;;;;;;1879504;76;20205;-86
2021/05/28 12:20:06;;;;;;;;;;;30.80;87.90;;;;;;1886287;75;20302;-86
2021/05/28 12:22:37;;;;;;;;;;;30.80;88.00;;;;;;1880421;75;20191;-87
2021/05/28 12:25:07;;;;;;;;;;;30.80;88.40;;;;;;1867011;76;20177;-87
2021/05/28 12:27:38;;;;;;;;;;;30.80;88.30;;;;;;1881650;76;20263;-87
2021/05/28 12:30:09;;;;;;;;;;;30.80;88.30;;;;;;1880745;76;20213;-87
2021/05/28 12:32:39;;;;;;;;;;;30.70;88.40;;;;;;1879656;76;20271;-87
2021/05/28 12:35:08;;;;;;;;;;;30.80;88.60;;;;;;1884774;76;20634;-87
2021/05/28 12:37:40;;;;;;;;;;;30.70;88.50;;;;;;1884924;75;20243;-87
2021/05/28 12:40:10;;;;;;;;;;;30.70;88.60;;;;;;1884109;76;20205;-87
2021/05/28 12:42:40;;;;;;;;;;;30.70;88.70;;;;;;1887034;76;20201;-87
2021/05/28 12:45:13;;;;;;;;;;;30.70;88.80;;;;;;1878544;76;20118;-86
2021/05/28 12:47:43;;;;;;;;;;;30.70;89.10;;;;;;1875399;76;20185;-87
2021/05/28 12:50:14;;;;;;;;;;;30.60;89.10;;;;;;1904584;75;20170;-87
2021/05/28 12:52:45;;;;;;;;;;;30.60;89.30;;;;;;1902985;75;20192;-85
2021/05/28 12:55:19;;;;;;;;;;;30.60;89.60;;;;;;1896127;75;20303;-86
2021/05/28 12:57:48;;;;;;;;;;;30.50;89.40;;;;;;1907439;75;20170;-86
2021/05/28 13:00:19;;;;;;;;;;;30.60;90.00;;;;;;1898228;75;20214;-87
2021/05/28 13:02:49;;;;;;;;;;;30.50;90.00;;;;;;1901691;75;20228;-87
2021/05/28 13:05:19;;;;;;;;;;;30.50;90.10;;;;;;1905258;75;20182;-87
2021/05/28 13:07:49;;;;;;;;;;;30.40;90.10;;;;;;1904536;75;20239;-87
2021/05/28 13:10:21;;;;;;;;;;;30.40;90.40;;;;;;1893917;75;20445;-87
2021/05/28 13:12:51;;;;;;;;;;;30.30;90.50;;;;;;1896849;75;20246;-87
2021/05/28 13:15:22;;;;;;;;;;;30.30;90.70;;;;;;1897925;75;20204;-87
2021/05/28 13:17:53;;;;;;;;;;;30.20;90.60;;;;;;1897823;75;20157;-85
2021/05/28 13:20:25;;;;;;;;;;;30.20;90.60;;;;;;1910823;74;20237;-87
2021/05/28 13:22:59;;;;;;;;;;;30.20;90.60;;;;;;1907484;75;20205;-87
2021/05/28 13:25:41;;;;;;;;;;;30.20;91.10;;;;;;1904196;75;20241;-87
2021/05/28 13:28:03;;;;;;;;;;;30.20;91.30;;;;;;1900913;75;20229;-87
2021/05/28 13:30:36;;;;;;;;;;;30.10;91.50;;;;;;1877593;76;20215;-87
2021/05/28 13:33:07;;;;;;;;;;;30.10;91.40;;;;;;1884433;75;20228;-85
2021/05/28 13:35:36;;;;;;;;;;;30.10;91.40;;;;;;1904601;75;20221;-87
2021/05/28 13:38:06;;;;;;;;;;;30.00;91.50;;;;;;1898217;75;20557;-87
2021/05/28 13:40:36;;;;;;;;;;;30.00;91.50;;;;;;1908627;75;20185;-87
2021/05/28 13:43:06;;;;;;;;;;;29.90;91.40;;;;;;1901538;75;20751;-88
2021/05/28 13:45:36;;;;;;;;;;;30.00;91.50;;;;;;1905292;75;20232;-85
2021/05/28 13:48:10;;;;;;;;;;;29.90;91.60;;;;;;1901004;75;20209;-86
2021/05/28 13:50:40;;;;;;;;;;;29.90;91.60;;;;;;1900238;75;20238;-87
2021/05/28 13:53:11;;;;;;;;;;;29.90;91.60;;;;;;1900024;75;20175;-89
2021/05/28 13:55:42;;;;;;;;;;;29.80;91.70;;;;;;1913657;75;20217;-88
2021/05/28 13:58:12;;;;;;;;;;;29.70;91.90;;;;;;1902200;75;20174;-88
2021/05/28 14:00:42;;;;;;;;;;;29.70;92.10;;;;;;1905895;75;20205;-87
2021/05/28 14:03:11;;;;;;;;;;;29.60;92.10;;;;;;1906128;75;20150;-88
2021/05/28 14:05:43;;;;;;;;;;;29.60;92.30;;;;;;1911057;75;20256;-87
2021/05/28 14:08:16;;;;;;;;;;;29.60;92.50;;;;;;1900879;75;20954;-87
2021/05/28 14:10:44;;;;;;;;;;;29.60;92.70;;;;;;1898293;75;20583;-87
2021/05/28 14:13:14;;;;;;;;;;;29.60;93.20;;;;;;1909155;75;20169;-88
2021/05/28 14:15:44;;;;;;;;;;;29.50;93.40;;;;;;1899340;75;20225;-87
2021/05/28 14:18:13;;;;;;;;;;;29.40;93.60;;;;;;1896209;75;20591;-86
2021/05/28 14:21:09;;;;;;;;;;;29.40;93.80;;;;;;1893232;74;20226;-87
2021/05/28 14:23:26;;;;;;;;;;;29.30;94.30;;;;;;1882258;75;20193;-86
2021/05/28 14:25:55;;;;;;;;;;;29.30;94.00;;;;;;1900087;75;20295;-87
2021/05/28 14:28:25;;;;;;;;;;;29.20;93.80;;;;;;1894208;75;20233;-87
2021/05/28 14:30:55;;;;;;;;;;;29.20;94.20;;;;;;1894780;75;20181;-86
2021/05/28 14:33:35;;;;;;;;;;;29.20;94.30;;;;;;1893178;75;20561;-86
2021/05/28 14:35:56;;;;;;;;;;;29.20;94.40;;;;;;1878303;74;20163;-87
2021/05/28 14:38:26;;;;;;;;;;;29.20;94.40;;;;;;1880113;75;20183;-86
2021/05/28 14:40:56;;;;;;;;;;;29.20;94.40;;;;;;1872942;75;20208;-86
2021/05/28 14:43:26;;;;;;;;;;;29.20;94.30;;;;;;1876094;75;20221;-86
2021/05/28 14:45:58;;;;;;;;;;;29.30;94.30;;;;;;1865900;75;20169;-84